sensor_id;sensor_type;location;lat;lon;timestamp;P1;durP1;ratioP1;P2;durP2;ratioP2
62202;SDS011;48199;49.138;7.414;2023-08-31T00:01:28;13.88;;;6.70;;
62202;SDS011;48199;49.138;7.414;2023-08-31T00:03:53;15.68;;;7.40;;
62202;SDS011;48199;49.138;7.414;2023-08-31T00:06:19;13.77;;;6.80;;
62202;SDS011;48199;49.138;7.414;2023-08-31T00:08:46;16.92;;;6.57;;
62202;SDS011;48199;49.138;7.414;2023-08-31T00:11:12;18.33;;;7.10;;
62202;SDS011;48199;49.138;7.414;2023-08-31T00:13:37;14.13;;;6.15;;
62202;SDS011;48199;49.138;7.414;2023-08-31T00:16:03;13.18;;;5.90;;
62202;SDS011;48199;49.138;7.414;2023-08-31T00:18:30;12.93;;;6.20;;
62202;SDS011;48199;49.138;7.414;2023-08-31T00:20:55;14.32;;;6.53;;
62202;SDS011;48199;49.138;7.414;2023-08-31T00:23:20;11.80;;;5.97;;
62202;SDS011;48199;49.138;7.414;2023-08-31T00:25:46;19.25;;;6.47;;
62202;SDS011;48199;49.138;7.414;2023-08-31T00:28:12;10.80;;;5.50;;
62202;SDS011;48199;49.138;7.414;2023-08-31T00:30:40;16.75;;;6.05;;
62202;SDS011;48199;49.138;7.414;2023-08-31T00:33:06;11.32;;;5.53;;
62202;SDS011;48199;49.138;7.414;2023-08-31T00:35:33;13.80;;;5.38;;
62202;SDS011;48199;49.138;7.414;2023-08-31T00:37:58;13.77;;;5.85;;
62202;SDS011;48199;49.138;7.414;2023-08-31T00:40:24;12.63;;;5.50;;
62202;SDS011;48199;49.138;7.414;2023-08-31T00:42:49;21.23;;;5.80;;
62202;SDS011;48199;49.138;7.414;2023-08-31T00:45:14;10.07;;;5.20;;
62202;SDS011;48199;49.138;7.414;2023-08-31T00:47:40;12.85;;;5.55;;
62202;SDS011;48199;49.138;7.414;2023-08-31T00:50:06;10.30;;;5.63;;
62202;SDS011;48199;49.138;7.414;2023-08-31T00:52:32;13.45;;;5.82;;
62202;SDS011;48199;49.138;7.414;2023-08-31T00:54:57;17.02;;;6.15;;
62202;SDS011;48199;49.138;7.414;2023-08-31T00:57:23;12.13;;;6.05;;
62202;SDS011;48199;49.138;7.414;2023-08-31T00:59:51;14.05;;;5.68;;
62202;SDS011;48199;49.138;7.414;2023-08-31T01:02:22;19.43;;;7.70;;
62202;SDS011;48199;49.138;7.414;2023-08-31T01:10:08;12.85;;;6.63;;
62202;SDS011;48199;49.138;7.414;2023-08-31T01:12:36;12.82;;;6.28;;
62202;SDS011;48199;49.138;7.414;2023-08-31T01:15:06;18.98;;;7.47;;
62202;SDS011;48199;49.138;7.414;2023-08-31T01:17:33;15.93;;;6.15;;
62202;SDS011;48199;49.138;7.414;2023-08-31T01:20:00;17.85;;;7.07;;
62202;SDS011;48199;49.138;7.414;2023-08-31T01:22:47;13.75;;;6.63;;
62202;SDS011;48199;49.138;7.414;2023-08-31T01:25:13;15.10;;;5.75;;
62202;SDS011;48199;49.138;7.414;2023-08-31T01:27:38;13.98;;;7.32;;
62202;SDS011;48199;49.138;7.414;2023-08-31T01:30:05;21.17;;;6.68;;
62202;SDS011;48199;49.138;7.414;2023-08-31T01:32:31;15.45;;;7.25;;
62202;SDS011;48199;49.138;7.414;2023-08-31T01:34:56;15.73;;;6.57;;
62202;SDS011;48199;49.138;7.414;2023-08-31T01:38:11;27.90;;;6.57;;
62202;SDS011;48199;49.138;7.414;2023-08-31T01:40:15;13.93;;;6.35;;
62202;SDS011;48199;49.138;7.414;2023-08-31T01:42:42;18.52;;;6.85;;
62202;SDS011;48199;49.138;7.414;2023-08-31T01:45:09;14.77;;;6.72;;
62202;SDS011;48199;49.138;7.414;2023-08-31T01:47:35;13.52;;;6.95;;
62202;SDS011;48199;49.138;7.414;2023-08-31T01:50:01;20.02;;;7.80;;
62202;SDS011;48199;49.138;7.414;2023-08-31T01:52:26;24.17;;;8.43;;
62202;SDS011;48199;49.138;7.414;2023-08-31T01:54:52;19.75;;;7.63;;
62202;SDS011;48199;49.138;7.414;2023-08-31T01:57:17;14.60;;;7.57;;
62202;SDS011;48199;49.138;7.414;2023-08-31T01:59:42;12.63;;;7.13;;
62202;SDS011;48199;49.138;7.414;2023-08-31T02:02:08;14.23;;;6.60;;
62202;SDS011;48199;49.138;7.414;2023-08-31T02:04:33;15.70;;;7.97;;
62202;SDS011;48199;49.138;7.414;2023-08-31T02:06:58;12.97;;;6.90;;
62202;SDS011;48199;49.138;7.414;2023-08-31T02:09:23;13.30;;;6.75;;
62202;SDS011;48199;49.138;7.414;2023-08-31T02:11:49;15.00;;;6.90;;
62202;SDS011;48199;49.138;7.414;2023-08-31T02:14:14;16.93;;;7.03;;
62202;SDS011;48199;49.138;7.414;2023-08-31T02:16:39;20.43;;;7.83;;
62202;SDS011;48199;49.138;7.414;2023-08-31T02:19:04;17.15;;;6.65;;
62202;SDS011;48199;49.138;7.414;2023-08-31T02:21:29;21.27;;;6.70;;
62202;SDS011;48199;49.138;7.414;2023-08-31T02:23:55;14.40;;;6.97;;
62202;SDS011;48199;49.138;7.414;2023-08-31T02:26:20;20.90;;;8.23;;
62202;SDS011;48199;49.138;7.414;2023-08-31T02:28:46;14.75;;;7.70;;
62202;SDS011;48199;49.138;7.414;2023-08-31T02:31:13;16.02;;;7.60;;
62202;SDS011;48199;49.138;7.414;2023-08-31T02:33:38;15.90;;;7.57;;
62202;SDS011;48199;49.138;7.414;2023-08-31T02:36:03;15.43;;;6.90;;
62202;SDS011;48199;49.138;7.414;2023-08-31T02:38:28;17.75;;;6.65;;
62202;SDS011;48199;49.138;7.414;2023-08-31T02:40:54;15.07;;;6.87;;
62202;SDS011;48199;49.138;7.414;2023-08-31T02:43:19;18.30;;;6.97;;
62202;SDS011;48199;49.138;7.414;2023-08-31T02:45:44;14.13;;;5.83;;
62202;SDS011;48199;49.138;7.414;2023-08-31T02:48:09;14.17;;;6.03;;
62202;SDS011;48199;49.138;7.414;2023-08-31T02:50:35;16.95;;;5.82;;
62202;SDS011;48199;49.138;7.414;2023-08-31T02:53:00;14.77;;;6.15;;
62202;SDS011;48199;49.138;7.414;2023-08-31T02:55:25;14.52;;;5.10;;
62202;SDS011;48199;49.138;7.414;2023-08-31T02:57:51;26.07;;;5.87;;
62202;SDS011;48199;49.138;7.414;2023-08-31T03:00:16;11.82;;;5.32;;
62202;SDS011;48199;49.138;7.414;2023-08-31T03:02:41;12.55;;;5.93;;
62202;SDS011;48199;49.138;7.414;2023-08-31T03:05:08;23.20;;;5.95;;
62202;SDS011;48199;49.138;7.414;2023-08-31T03:07:33;16.87;;;5.90;;
62202;SDS011;48199;49.138;7.414;2023-08-31T03:09:59;18.77;;;6.63;;
62202;SDS011;48199;49.138;7.414;2023-08-31T03:12:24;10.50;;;5.37;;
62202;SDS011;48199;49.138;7.414;2023-08-31T03:14:49;11.25;;;5.25;;
62202;SDS011;48199;49.138;7.414;2023-08-31T03:17:14;20.13;;;5.80;;
62202;SDS011;48199;49.138;7.414;2023-08-31T03:19:40;16.37;;;5.67;;
62202;SDS011;48199;49.138;7.414;2023-08-31T03:22:05;9.47;;;5.40;;
62202;SDS011;48199;49.138;7.414;2023-08-31T03:24:31;10.38;;;5.30;;
62202;SDS011;48199;49.138;7.414;2023-08-31T03:26:57;18.90;;;5.30;;
62202;SDS011;48199;49.138;7.414;2023-08-31T03:29:22;9.87;;;4.90;;
62202;SDS011;48199;49.138;7.414;2023-08-31T03:31:47;12.43;;;6.10;;
62202;SDS011;48199;49.138;7.414;2023-08-31T03:34:13;15.27;;;5.63;;
62202;SDS011;48199;49.138;7.414;2023-08-31T03:36:38;14.40;;;5.10;;
62202;SDS011;48199;49.138;7.414;2023-08-31T03:39:03;20.60;;;5.80;;
62202;SDS011;48199;49.138;7.414;2023-08-31T03:41:29;12.60;;;5.07;;
62202;SDS011;48199;49.138;7.414;2023-08-31T03:43:55;19.48;;;5.72;;
62202;SDS011;48199;49.138;7.414;2023-08-31T03:46:20;10.48;;;5.40;;
62202;SDS011;48199;49.138;7.414;2023-08-31T03:48:46;14.27;;;5.77;;
62202;SDS011;48199;49.138;7.414;2023-08-31T03:51:11;22.17;;;5.33;;
62202;SDS011;48199;49.138;7.414;2023-08-31T03:53:36;12.57;;;4.87;;
62202;SDS011;48199;49.138;7.414;2023-08-31T03:56:01;14.80;;;5.40;;
62202;SDS011;48199;49.138;7.414;2023-08-31T03:58:28;12.48;;;5.68;;
62202;SDS011;48199;49.138;7.414;2023-08-31T04:00:54;9.87;;;5.40;;
62202;SDS011;48199;49.138;7.414;2023-08-31T04:03:19;13.45;;;5.10;;
62202;SDS011;48199;49.138;7.414;2023-08-31T04:05:45;15.50;;;6.03;;
62202;SDS011;48199;49.138;7.414;2023-08-31T04:08:10;14.57;;;5.30;;
62202;SDS011;48199;49.138;7.414;2023-08-31T04:10:35;19.80;;;6.03;;
62202;SDS011;48199;49.138;7.414;2023-08-31T04:13:00;16.60;;;5.73;;
62202;SDS011;48199;49.138;7.414;2023-08-31T04:15:25;11.70;;;5.80;;
62202;SDS011;48199;49.138;7.414;2023-08-31T04:17:51;16.10;;;6.17;;
62202;SDS011;48199;49.138;7.414;2023-08-31T04:20:16;13.30;;;6.30;;
62202;SDS011;48199;49.138;7.414;2023-08-31T04:22:41;10.20;;;6.03;;
62202;SDS011;48199;49.138;7.414;2023-08-31T04:25:07;17.27;;;5.97;;
62202;SDS011;48199;49.138;7.414;2023-08-31T04:27:32;15.73;;;6.78;;
62202;SDS011;48199;49.138;7.414;2023-08-31T04:30:00;16.37;;;6.47;;
62202;SDS011;48199;49.138;7.414;2023-08-31T04:32:26;15.13;;;7.65;;
62202;SDS011;48199;49.138;7.414;2023-08-31T04:34:52;22.52;;;10.40;;
62202;SDS011;48199;49.138;7.414;2023-08-31T04:37:17;31.75;;;12.02;;
62202;SDS011;48199;49.138;7.414;2023-08-31T04:39:42;27.02;;;9.98;;
62202;SDS011;48199;49.138;7.414;2023-08-31T04:42:07;36.53;;;13.83;;
62202;SDS011;48199;49.138;7.414;2023-08-31T04:44:33;30.50;;;15.32;;
62202;SDS011;48199;49.138;7.414;2023-08-31T04:46:58;28.08;;;14.35;;
62202;SDS011;48199;49.138;7.414;2023-08-31T04:49:24;30.40;;;15.30;;
62202;SDS011;48199;49.138;7.414;2023-08-31T04:51:49;31.65;;;15.48;;
62202;SDS011;48199;49.138;7.414;2023-08-31T04:54:14;34.80;;;15.02;;
62202;SDS011;48199;49.138;7.414;2023-08-31T04:56:40;30.67;;;14.05;;
62202;SDS011;48199;49.138;7.414;2023-08-31T04:59:05;32.13;;;14.18;;
62202;SDS011;48199;49.138;7.414;2023-08-31T05:01:30;24.53;;;12.77;;
62202;SDS011;48199;49.138;7.414;2023-08-31T05:03:55;19.90;;;11.60;;
62202;SDS011;48199;49.138;7.414;2023-08-31T05:06:21;24.07;;;11.10;;
62202;SDS011;48199;49.138;7.414;2023-08-31T05:08:46;19.30;;;9.20;;
62202;SDS011;48199;49.138;7.414;2023-08-31T05:11:12;23.52;;;9.57;;
62202;SDS011;48199;49.138;7.414;2023-08-31T05:13:37;19.57;;;8.37;;
62202;SDS011;48199;49.138;7.414;2023-08-31T05:16:02;19.27;;;8.00;;
62202;SDS011;48199;49.138;7.414;2023-08-31T05:18:28;22.17;;;8.07;;
62202;SDS011;48199;49.138;7.414;2023-08-31T05:20:53;15.53;;;6.63;;
62202;SDS011;48199;49.138;7.414;2023-08-31T05:23:18;18.50;;;6.93;;
62202;SDS011;48199;49.138;7.414;2023-08-31T05:25:44;17.87;;;6.37;;
62202;SDS011;48199;49.138;7.414;2023-08-31T05:28:09;14.55;;;6.97;;
62202;SDS011;48199;49.138;7.414;2023-08-31T05:30:34;12.40;;;5.57;;
62202;SDS011;48199;49.138;7.414;2023-08-31T05:33:00;20.65;;;5.88;;
62202;SDS011;48199;49.138;7.414;2023-08-31T05:35:25;16.05;;;6.43;;
62202;SDS011;48199;49.138;7.414;2023-08-31T05:37:50;15.50;;;6.53;;
62202;SDS011;48199;49.138;7.414;2023-08-31T05:40:16;13.67;;;5.60;;
62202;SDS011;48199;49.138;7.414;2023-08-31T05:42:41;14.95;;;5.75;;
62202;SDS011;48199;49.138;7.414;2023-08-31T05:45:07;15.07;;;5.03;;
62202;SDS011;48199;49.138;7.414;2023-08-31T05:47:33;20.17;;;6.40;;
62202;SDS011;48199;49.138;7.414;2023-08-31T05:49:59;13.02;;;5.95;;
62202;SDS011;48199;49.138;7.414;2023-08-31T05:52:25;15.07;;;5.40;;
62202;SDS011;48199;49.138;7.414;2023-08-31T05:54:50;14.80;;;5.70;;
62202;SDS011;48199;49.138;7.414;2023-08-31T05:57:18;12.32;;;5.47;;
62202;SDS011;48199;49.138;7.414;2023-08-31T05:59:43;13.55;;;4.55;;
62202;SDS011;48199;49.138;7.414;2023-08-31T06:02:08;18.60;;;5.20;;
62202;SDS011;48199;49.138;7.414;2023-08-31T06:04:34;11.27;;;5.00;;
62202;SDS011;48199;49.138;7.414;2023-08-31T06:06:59;11.50;;;4.33;;
62202;SDS011;48199;49.138;7.414;2023-08-31T06:09:24;15.80;;;4.90;;
62202;SDS011;48199;49.138;7.414;2023-08-31T06:11:50;11.13;;;4.60;;
62202;SDS011;48199;49.138;7.414;2023-08-31T06:14:15;17.13;;;5.33;;
62202;SDS011;48199;49.138;7.414;2023-08-31T06:16:40;15.80;;;5.43;;
62202;SDS011;48199;49.138;7.414;2023-08-31T06:19:05;13.83;;;3.97;;
62202;SDS011;48199;49.138;7.414;2023-08-31T06:21:31;15.40;;;4.30;;
62202;SDS011;48199;49.138;7.414;2023-08-31T06:23:56;14.87;;;4.33;;
62202;SDS011;48199;49.138;7.414;2023-08-31T06:26:21;12.23;;;4.05;;
62202;SDS011;48199;49.138;7.414;2023-08-31T06:28:46;14.95;;;3.42;;
62202;SDS011;48199;49.138;7.414;2023-08-31T06:31:12;10.50;;;3.22;;
62202;SDS011;48199;49.138;7.414;2023-08-31T06:33:37;11.57;;;3.50;;
62202;SDS011;48199;49.138;7.414;2023-08-31T06:36:02;10.60;;;3.57;;
62202;SDS011;48199;49.138;7.414;2023-08-31T06:38:27;12.77;;;3.67;;
62202;SDS011;48199;49.138;7.414;2023-08-31T06:40:53;13.85;;;3.55;;
62202;SDS011;48199;49.138;7.414;2023-08-31T06:43:23;14.38;;;3.20;;
62202;SDS011;48199;49.138;7.414;2023-08-31T06:45:48;8.68;;;3.13;;
62202;SDS011;48199;49.138;7.414;2023-08-31T06:48:13;13.57;;;3.20;;
62202;SDS011;48199;49.138;7.414;2023-08-31T06:50:39;11.60;;;3.85;;
62202;SDS011;48199;49.138;7.414;2023-08-31T06:53:04;9.67;;;3.53;;
62202;SDS011;48199;49.138;7.414;2023-08-31T06:55:29;7.97;;;3.07;;
62202;SDS011;48199;49.138;7.414;2023-08-31T06:57:56;12.52;;;3.97;;
62202;SDS011;48199;49.138;7.414;2023-08-31T07:00:22;13.60;;;3.37;;
62202;SDS011;48199;49.138;7.414;2023-08-31T07:02:47;8.48;;;3.17;;
62202;SDS011;48199;49.138;7.414;2023-08-31T07:05:12;8.10;;;3.17;;
62202;SDS011;48199;49.138;7.414;2023-08-31T07:07:38;9.32;;;3.00;;
62202;SDS011;48199;49.138;7.414;2023-08-31T07:10:03;13.90;;;3.25;;
62202;SDS011;48199;49.138;7.414;2023-08-31T07:12:30;11.18;;;2.72;;
62202;SDS011;48199;49.138;7.414;2023-08-31T07:14:55;13.67;;;2.87;;
62202;SDS011;48199;49.138;7.414;2023-08-31T07:17:21;10.00;;;3.27;;
62202;SDS011;48199;49.138;7.414;2023-08-31T07:19:46;15.75;;;3.50;;
62202;SDS011;48199;49.138;7.414;2023-08-31T07:22:11;7.00;;;2.70;;
62202;SDS011;48199;49.138;7.414;2023-08-31T07:24:37;9.63;;;2.65;;
62202;SDS011;48199;49.138;7.414;2023-08-31T07:27:02;8.27;;;2.77;;
62202;SDS011;48199;49.138;7.414;2023-08-31T07:29:28;14.45;;;2.88;;
62202;SDS011;48199;49.138;7.414;2023-08-31T07:31:53;7.03;;;2.28;;
62202;SDS011;48199;49.138;7.414;2023-08-31T07:34:18;6.73;;;2.50;;
62202;SDS011;48199;49.138;7.414;2023-08-31T07:36:43;7.43;;;2.87;;
62202;SDS011;48199;49.138;7.414;2023-08-31T07:39:09;6.17;;;2.33;;
62202;SDS011;48199;49.138;7.414;2023-08-31T07:41:34;11.55;;;2.97;;
62202;SDS011;48199;49.138;7.414;2023-08-31T07:43:59;6.73;;;2.43;;
62202;SDS011;48199;49.138;7.414;2023-08-31T07:46:24;7.93;;;2.27;;
62202;SDS011;48199;49.138;7.414;2023-08-31T07:48:49;5.03;;;2.17;;
62202;SDS011;48199;49.138;7.414;2023-08-31T07:51:15;7.97;;;2.60;;
62202;SDS011;48199;49.138;7.414;2023-08-31T07:53:41;10.57;;;2.92;;
62202;SDS011;48199;49.138;7.414;2023-08-31T07:56:06;6.03;;;2.23;;
62202;SDS011;48199;49.138;7.414;2023-08-31T07:58:31;6.83;;;2.20;;
62202;SDS011;48199;49.138;7.414;2023-08-31T08:00:56;6.17;;;2.43;;
62202;SDS011;48199;49.138;7.414;2023-08-31T08:03:22;11.37;;;2.40;;
62202;SDS011;48199;49.138;7.414;2023-08-31T08:05:47;7.70;;;2.50;;
62202;SDS011;48199;49.138;7.414;2023-08-31T08:08:12;11.40;;;2.88;;
62202;SDS011;48199;49.138;7.414;2023-08-31T08:10:38;5.33;;;2.27;;
62202;SDS011;48199;49.138;7.414;2023-08-31T08:13:03;12.88;;;2.75;;
62202;SDS011;48199;49.138;7.414;2023-08-31T08:15:29;15.55;;;2.92;;
62202;SDS011;48199;49.138;7.414;2023-08-31T08:17:54;11.05;;;2.63;;
62202;SDS011;48199;49.138;7.414;2023-08-31T08:20:20;8.03;;;2.37;;
62202;SDS011;48199;49.138;7.414;2023-08-31T08:22:45;7.30;;;2.40;;
62202;SDS011;48199;49.138;7.414;2023-08-31T08:25:10;11.05;;;2.50;;
62202;SDS011;48199;49.138;7.414;2023-08-31T08:27:35;6.00;;;2.08;;
62202;SDS011;48199;49.138;7.414;2023-08-31T08:30:02;9.50;;;2.40;;
62202;SDS011;48199;49.138;7.414;2023-08-31T08:32:27;11.88;;;2.15;;
62202;SDS011;48199;49.138;7.414;2023-08-31T08:34:52;9.53;;;2.03;;
62202;SDS011;48199;49.138;7.414;2023-08-31T08:37:17;9.40;;;2.40;;
62202;SDS011;48199;49.138;7.414;2023-08-31T08:39:43;7.53;;;2.40;;
62202;SDS011;48199;49.138;7.414;2023-08-31T08:42:08;8.50;;;2.20;;
62202;SDS011;48199;49.138;7.414;2023-08-31T08:44:35;10.43;;;2.47;;
62202;SDS011;48199;49.138;7.414;2023-08-31T08:47:00;10.32;;;2.92;;
62202;SDS011;48199;49.138;7.414;2023-08-31T08:49:26;10.03;;;2.37;;
62202;SDS011;48199;49.138;7.414;2023-08-31T08:51:51;11.25;;;2.63;;
62202;SDS011;48199;49.138;7.414;2023-08-31T08:54:17;7.53;;;2.20;;
62202;SDS011;48199;49.138;7.414;2023-08-31T08:56:43;8.52;;;2.30;;
62202;SDS011;48199;49.138;7.414;2023-08-31T08:59:08;6.07;;;2.25;;
62202;SDS011;48199;49.138;7.414;2023-08-31T09:01:37;9.82;;;2.38;;
62202;SDS011;48199;49.138;7.414;2023-08-31T09:04:03;9.35;;;2.42;;
62202;SDS011;48199;49.138;7.414;2023-08-31T09:06:28;7.15;;;2.22;;
62202;SDS011;48199;49.138;7.414;2023-08-31T09:08:54;16.80;;;2.55;;
62202;SDS011;48199;49.138;7.414;2023-08-31T09:11:21;7.43;;;2.25;;
62202;SDS011;48199;49.138;7.414;2023-08-31T09:13:49;9.35;;;2.17;;
62202;SDS011;48199;49.138;7.414;2023-08-31T09:16:30;9.23;;;2.22;;
62202;SDS011;48199;49.138;7.414;2023-08-31T09:18:56;9.45;;;2.60;;
62202;SDS011;48199;49.138;7.414;2023-08-31T09:21:22;9.85;;;4.10;;
62202;SDS011;48199;49.138;7.414;2023-08-31T09:23:55;16.75;;;2.55;;
62202;SDS011;48199;49.138;7.414;2023-08-31T09:26:21;8.70;;;2.67;;
62202;SDS011;48199;49.138;7.414;2023-08-31T09:28:46;8.17;;;2.17;;
62202;SDS011;48199;49.138;7.414;2023-08-31T09:31:12;10.50;;;2.50;;
62202;SDS011;48199;49.138;7.414;2023-08-31T09:33:37;7.78;;;2.25;;
62202;SDS011;48199;49.138;7.414;2023-08-31T09:36:02;14.73;;;2.13;;
62202;SDS011;48199;49.138;7.414;2023-08-31T09:38:29;7.28;;;2.03;;
62202;SDS011;48199;49.138;7.414;2023-08-31T09:41:03;11.35;;;2.75;;
62202;SDS011;48199;49.138;7.414;2023-08-31T09:43:28;14.43;;;2.42;;
62202;SDS011;48199;49.138;7.414;2023-08-31T09:45:53;8.75;;;2.17;;
62202;SDS011;48199;49.138;7.414;2023-08-31T09:48:19;8.40;;;1.93;;
62202;SDS011;48199;49.138;7.414;2023-08-31T09:50:44;12.40;;;2.38;;
62202;SDS011;48199;49.138;7.414;2023-08-31T09:53:11;10.45;;;2.53;;
62202;SDS011;48199;49.138;7.414;2023-08-31T09:55:37;9.38;;;2.55;;
62202;SDS011;48199;49.138;7.414;2023-08-31T09:58:03;10.50;;;2.42;;
62202;SDS011;48199;49.138;7.414;2023-08-31T10:00:30;12.32;;;2.40;;
62202;SDS011;48199;49.138;7.414;2023-08-31T10:02:58;6.72;;;2.25;;
62202;SDS011;48199;49.138;7.414;2023-08-31T10:05:25;7.47;;;2.63;;
62202;SDS011;48199;49.138;7.414;2023-08-31T10:07:50;11.80;;;2.40;;
62202;SDS011;48199;49.138;7.414;2023-08-31T10:10:15;11.32;;;2.60;;
62202;SDS011;48199;49.138;7.414;2023-08-31T10:12:41;8.57;;;3.03;;
62202;SDS011;48199;49.138;7.414;2023-08-31T10:15:08;7.82;;;2.15;;
62202;SDS011;48199;49.138;7.414;2023-08-31T10:17:33;6.32;;;2.20;;
62202;SDS011;48199;49.138;7.414;2023-08-31T10:19:59;12.27;;;2.75;;
62202;SDS011;48199;49.138;7.414;2023-08-31T10:22:24;12.43;;;2.60;;
62202;SDS011;48199;49.138;7.414;2023-08-31T10:24:57;8.20;;;2.30;;
62202;SDS011;48199;49.138;7.414;2023-08-31T10:27:23;17.70;;;2.90;;
62202;SDS011;48199;49.138;7.414;2023-08-31T10:29:49;6.60;;;2.30;;
62202;SDS011;48199;49.138;7.414;2023-08-31T10:32:17;10.63;;;2.60;;
62202;SDS011;48199;49.138;7.414;2023-08-31T10:37:41;13.32;;;2.33;;
62202;SDS011;48199;49.138;7.414;2023-08-31T10:40:10;7.47;;;2.80;;
62202;SDS011;48199;49.138;7.414;2023-08-31T10:42:43;13.88;;;2.42;;
62202;SDS011;48199;49.138;7.414;2023-08-31T10:45:09;8.63;;;2.22;;
62202;SDS011;48199;49.138;7.414;2023-08-31T10:47:37;9.20;;;2.22;;
62202;SDS011;48199;49.138;7.414;2023-08-31T10:50:20;14.10;;;2.60;;
62202;SDS011;48199;49.138;7.414;2023-08-31T10:52:46;7.32;;;2.53;;
62202;SDS011;48199;49.138;7.414;2023-08-31T10:55:11;9.52;;;2.65;;
62202;SDS011;48199;49.138;7.414;2023-08-31T10:57:36;9.90;;;2.63;;
62202;SDS011;48199;49.138;7.414;2023-08-31T11:00:02;7.25;;;2.47;;
62202;SDS011;48199;49.138;7.414;2023-08-31T11:02:35;9.57;;;2.42;;
62202;SDS011;48199;49.138;7.414;2023-08-31T11:05:13;10.50;;;2.58;;
62202;SDS011;48199;49.138;7.414;2023-08-31T11:07:40;10.48;;;2.72;;
62202;SDS011;48199;49.138;7.414;2023-08-31T11:10:06;12.30;;;3.28;;
62202;SDS011;48199;49.138;7.414;2023-08-31T11:12:31;11.40;;;2.53;;
62202;SDS011;48199;49.138;7.414;2023-08-31T11:14:57;9.98;;;2.33;;
62202;SDS011;48199;49.138;7.414;2023-08-31T11:17:22;8.27;;;2.10;;
62202;SDS011;48199;49.138;7.414;2023-08-31T11:19:47;7.03;;;2.00;;
62202;SDS011;48199;49.138;7.414;2023-08-31T11:22:12;10.38;;;2.65;;
62202;SDS011;48199;49.138;7.414;2023-08-31T11:24:38;6.57;;;2.07;;
62202;SDS011;48199;49.138;7.414;2023-08-31T11:27:06;7.85;;;2.90;;
62202;SDS011;48199;49.138;7.414;2023-08-31T11:29:32;9.63;;;2.70;;
62202;SDS011;48199;49.138;7.414;2023-08-31T11:31:57;11.27;;;2.75;;
62202;SDS011;48199;49.138;7.414;2023-08-31T11:34:25;10.90;;;3.17;;
62202;SDS011;48199;49.138;7.414;2023-08-31T11:36:50;8.40;;;2.60;;
62202;SDS011;48199;49.138;7.414;2023-08-31T11:39:17;7.63;;;2.23;;
62202;SDS011;48199;49.138;7.414;2023-08-31T11:41:42;13.07;;;2.90;;
62202;SDS011;48199;49.138;7.414;2023-08-31T11:44:08;12.60;;;2.58;;
62202;SDS011;48199;49.138;7.414;2023-08-31T11:46:34;12.57;;;3.28;;
62202;SDS011;48199;49.138;7.414;2023-08-31T11:48:59;15.80;;;2.85;;
62202;SDS011;48199;49.138;7.414;2023-08-31T11:51:25;10.02;;;2.40;;
62202;SDS011;48199;49.138;7.414;2023-08-31T11:53:50;10.52;;;2.63;;
62202;SDS011;48199;49.138;7.414;2023-08-31T11:56:15;9.52;;;2.78;;
62202;SDS011;48199;49.138;7.414;2023-08-31T11:58:41;11.07;;;2.97;;
62202;SDS011;48199;49.138;7.414;2023-08-31T12:01:07;12.20;;;3.25;;
62202;SDS011;48199;49.138;7.414;2023-08-31T12:03:43;7.72;;;2.92;;
62202;SDS011;48199;49.138;7.414;2023-08-31T12:06:12;7.38;;;2.55;;
62202;SDS011;48199;49.138;7.414;2023-08-31T12:08:39;10.57;;;3.00;;
62202;SDS011;48199;49.138;7.414;2023-08-31T12:11:06;7.10;;;2.63;;
62202;SDS011;48199;49.138;7.414;2023-08-31T12:13:31;9.18;;;2.22;;
62202;SDS011;48199;49.138;7.414;2023-08-31T12:15:57;9.18;;;2.80;;
62202;SDS011;48199;49.138;7.414;2023-08-31T12:18:22;10.75;;;2.80;;
62202;SDS011;48199;49.138;7.414;2023-08-31T12:20:51;10.52;;;2.80;;
62202;SDS011;48199;49.138;7.414;2023-08-31T12:23:17;14.60;;;2.70;;
62202;SDS011;48199;49.138;7.414;2023-08-31T12:25:49;8.15;;;2.42;;
62202;SDS011;48199;49.138;7.414;2023-08-31T12:30:45;15.03;;;3.33;;
62202;SDS011;48199;49.138;7.414;2023-08-31T12:33:11;9.02;;;2.63;;
62202;SDS011;48199;49.138;7.414;2023-08-31T12:35:36;15.27;;;2.80;;
62202;SDS011;48199;49.138;7.414;2023-08-31T12:38:03;9.57;;;2.55;;
62202;SDS011;48199;49.138;7.414;2023-08-31T12:40:29;11.90;;;2.30;;
62202;SDS011;48199;49.138;7.414;2023-08-31T12:42:54;6.37;;;1.97;;
62202;SDS011;48199;49.138;7.414;2023-08-31T12:45:19;5.57;;;2.77;;
62202;SDS011;48199;49.138;7.414;2023-08-31T12:47:44;8.33;;;2.60;;
62202;SDS011;48199;49.138;7.414;2023-08-31T12:50:09;9.23;;;2.70;;
62202;SDS011;48199;49.138;7.414;2023-08-31T12:52:35;9.38;;;2.70;;
62202;SDS011;48199;49.138;7.414;2023-08-31T12:55:00;5.20;;;2.37;;
62202;SDS011;48199;49.138;7.414;2023-08-31T12:57:25;7.57;;;2.47;;
62202;SDS011;48199;49.138;7.414;2023-08-31T12:59:50;12.23;;;3.07;;
62202;SDS011;48199;49.138;7.414;2023-08-31T13:02:16;16.98;;;3.30;;
62202;SDS011;48199;49.138;7.414;2023-08-31T13:04:41;9.07;;;3.23;;
62202;SDS011;48199;49.138;7.414;2023-08-31T13:07:06;7.97;;;2.70;;
62202;SDS011;48199;49.138;7.414;2023-08-31T13:09:31;10.93;;;2.83;;
62202;SDS011;48199;49.138;7.414;2023-08-31T13:11:56;8.27;;;2.70;;
62202;SDS011;48199;49.138;7.414;2023-08-31T13:14:22;9.87;;;2.93;;
62202;SDS011;48199;49.138;7.414;2023-08-31T13:16:47;11.13;;;2.73;;
62202;SDS011;48199;49.138;7.414;2023-08-31T13:19:12;8.93;;;2.57;;
62202;SDS011;48199;49.138;7.414;2023-08-31T13:21:37;12.47;;;2.73;;
62202;SDS011;48199;49.138;7.414;2023-08-31T13:24:02;15.83;;;2.97;;
62202;SDS011;48199;49.138;7.414;2023-08-31T13:26:28;13.30;;;3.35;;
62202;SDS011;48199;49.138;7.414;2023-08-31T13:28:54;10.30;;;3.10;;
62202;SDS011;48199;49.138;7.414;2023-08-31T13:31:19;12.43;;;2.60;;
62202;SDS011;48199;49.138;7.414;2023-08-31T13:33:44;12.40;;;3.40;;
62202;SDS011;48199;49.138;7.414;2023-08-31T13:36:09;14.07;;;3.85;;
62202;SDS011;48199;49.138;7.414;2023-08-31T13:38:35;12.05;;;3.20;;
62202;SDS011;48199;49.138;7.414;2023-08-31T13:41:00;14.20;;;3.63;;
62202;SDS011;48199;49.138;7.414;2023-08-31T13:43:25;8.07;;;2.50;;
62202;SDS011;48199;49.138;7.414;2023-08-31T13:45:51;8.77;;;3.10;;
62202;SDS011;48199;49.138;7.414;2023-08-31T13:48:16;11.52;;;2.75;;
62202;SDS011;48199;49.138;7.414;2023-08-31T13:50:41;16.00;;;3.03;;
62202;SDS011;48199;49.138;7.414;2023-08-31T13:53:07;11.85;;;3.30;;
62202;SDS011;48199;49.138;7.414;2023-08-31T13:55:32;13.13;;;2.67;;
62202;SDS011;48199;49.138;7.414;2023-08-31T13:58:03;12.90;;;2.65;;
62202;SDS011;48199;49.138;7.414;2023-08-31T14:00:28;11.32;;;3.25;;
62202;SDS011;48199;49.138;7.414;2023-08-31T14:02:53;16.40;;;3.10;;
62202;SDS011;48199;49.138;7.414;2023-08-31T14:05:19;11.77;;;3.03;;
62202;SDS011;48199;49.138;7.414;2023-08-31T14:07:44;20.83;;;3.65;;
62202;SDS011;48199;49.138;7.414;2023-08-31T14:10:10;12.77;;;3.53;;
62202;SDS011;48199;49.138;7.414;2023-08-31T14:12:35;15.18;;;3.42;;
62202;SDS011;48199;49.138;7.414;2023-08-31T14:15:01;14.20;;;3.20;;
62202;SDS011;48199;49.138;7.414;2023-08-31T14:17:28;10.52;;;2.75;;
62202;SDS011;48199;49.138;7.414;2023-08-31T14:19:54;8.97;;;2.50;;
62202;SDS011;48199;49.138;7.414;2023-08-31T14:22:19;16.85;;;3.47;;
62202;SDS011;48199;49.138;7.414;2023-08-31T14:24:44;10.03;;;2.97;;
62202;SDS011;48199;49.138;7.414;2023-08-31T14:27:09;12.68;;;3.08;;
62202;SDS011;48199;49.138;7.414;2023-08-31T14:29:36;18.00;;;2.90;;
62202;SDS011;48199;49.138;7.414;2023-08-31T14:32:01;12.23;;;3.25;;
62202;SDS011;48199;49.138;7.414;2023-08-31T14:34:27;19.92;;;3.30;;
62202;SDS011;48199;49.138;7.414;2023-08-31T14:36:52;16.60;;;3.70;;
62202;SDS011;48199;49.138;7.414;2023-08-31T14:39:22;12.45;;;2.97;;
62202;SDS011;48199;49.138;7.414;2023-08-31T14:41:48;11.73;;;3.25;;